Time;durP1;ratioP1;P1;durP2;ratioP2;P2;SDS_P1;SDS_P2;PMS_P1;PMS_P2;Temp;Humidity;BMP_temperature;BMP_pressure;BME280_temperature;BME280_humidity;BME280_pressure;Samples;Min_cycle;Max_cycle;Signal;HPM_P1;HPM_P2
2022/04/02 00:00:55;;;;;;;2.20;1.13;;;17.70;57.10;;;;;;4994458;28;20050;-12
2022/04/02 00:03:20;;;;;;;1.17;1.08;;;17.80;57.10;;;;;;4994448;28;20055;-12
2022/04/02 00:05:46;;;;;;;0.98;0.98;;;17.70;57.10;;;;;;5003315;28;20136;-12
2022/04/02 00:08:12;;;;;;;1.00;0.90;;;17.70;57.00;;;;;;5000572;28;20570;-13
2022/04/02 00:10:37;;;;;;;0.93;0.85;;;17.70;56.90;;;;;;5009896;28;20101;-13
2022/04/02 00:13:03;;;;;;;3.97;0.95;;;17.70;57.00;;;;;;5006941;28;20042;-13
2022/04/02 00:15:28;;;;;;;1.00;1.00;;;17.70;57.10;;;;;;4993168;28;20050;-15
2022/04/02 00:17:54;;;;;;;0.70;0.70;;;17.70;57.00;;;;;;4990734;28;20167;-12
2022/04/02 00:20:19;;;;;;;1.25;1.15;;;17.70;57.00;;;;;;4983325;28;20058;-13
2022/04/02 00:25:30;;;;;;;1.20;1.10;;;17.70;57.10;;;;;;4986092;28;20073;-15
2022/04/02 00:27:55;;;;;;;1.02;0.93;;;17.70;57.00;;;;;;4984832;28;20046;-12
2022/04/02 00:30:21;;;;;;;1.00;1.00;;;17.70;57.10;;;;;;4988229;28;20061;-13
2022/04/02 00:32:47;;;;;;;1.10;1.10;;;17.70;57.00;;;;;;4985183;28;20070;-13
2022/04/02 00:35:13;;;;;;;0.95;0.95;;;17.70;57.10;;;;;;4991525;28;20066;-12
2022/04/02 00:37:39;;;;;;;0.90;0.82;;;17.70;57.00;;;;;;4991806;28;20559;-13
2022/04/02 00:40:05;;;;;;;0.80;0.80;;;17.70;57.10;;;;;;4991868;28;20419;-12
2022/04/02 00:42:30;;;;;;;1.15;1.05;;;17.60;57.00;;;;;;4993347;28;20069;-15
2022/04/02 00:44:56;;;;;;;0.80;0.80;;;17.70;57.00;;;;;;4988223;28;20074;-13
2022/04/02 00:47:22;;;;;;;1.20;1.10;;;17.60;57.00;;;;;;4986966;28;20105;-12
2022/04/02 00:49:47;;;;;;;0.90;0.90;;;17.70;57.00;;;;;;4985813;28;20147;-13
2022/04/02 00:52:13;;;;;;;0.75;0.75;;;17.60;57.00;;;;;;4992525;28;20166;-12
2022/04/02 00:54:39;;;;;;;0.70;0.70;;;17.60;57.00;;;;;;4992081;28;20058;-12
2022/04/02 00:57:06;;;;;;;1.20;1.10;;;17.60;57.00;;;;;;4998326;28;20461;-13
2022/04/02 00:59:31;;;;;;;0.70;0.70;;;17.70;56.90;;;;;;4991816;28;20047;-13
2022/04/02 01:01:57;;;;;;;1.52;0.77;;;17.60;56.90;;;;;;4992343;28;20050;-12
2022/04/02 01:04:23;;;;;;;0.70;0.70;;;17.60;57.00;;;;;;4998512;28;20392;-14
2022/04/02 01:06:48;;;;;;;0.80;0.80;;;17.60;57.00;;;;;;4997623;28;20045;-12
2022/04/02 01:09:14;;;;;;;0.95;0.70;;;17.60;57.00;;;;;;5004656;28;20045;-12
2022/04/02 01:11:41;;;;;;;0.63;0.60;;;17.60;57.10;;;;;;4998028;28;20072;-12
2022/04/02 01:14:07;;;;;;;2.88;0.82;;;17.60;57.00;;;;;;4989492;28;20106;-13
2022/04/02 01:16:33;;;;;;;0.80;0.80;;;17.60;56.90;;;;;;4992651;28;20964;-13
2022/04/02 01:18:59;;;;;;;0.50;0.50;;;17.60;57.00;;;;;;4995572;28;20054;-12
2022/04/02 01:21:26;;;;;;;0.60;0.60;;;17.60;57.00;;;;;;4999112;28;20089;-13
2022/04/02 01:23:52;;;;;;;0.60;0.60;;;17.60;57.00;;;;;;5004127;28;20057;-13
2022/04/02 01:26:18;;;;;;;0.55;0.55;;;17.60;57.10;;;;;;4997860;28;20034;-13
2022/04/02 01:28:44;;;;;;;0.73;0.73;;;17.60;57.10;;;;;;4992316;28;20058;-12
2022/04/02 01:31:10;;;;;;;0.70;0.60;;;17.60;57.00;;;;;;4979959;28;20133;-12
2022/04/02 01:33:36;;;;;;;1.10;0.77;;;17.60;56.90;;;;;;4991242;28;20191;-13
2022/04/02 01:36:03;;;;;;;0.60;0.60;;;17.50;56.90;;;;;;4992196;28;20046;-13
2022/04/02 01:38:29;;;;;;;0.80;0.70;;;17.60;56.90;;;;;;4997104;28;20515;-13
2022/04/02 01:40:56;;;;;;;2.28;0.60;;;17.50;56.90;;;;;;4991876;28;20427;-12
2022/04/02 01:43:22;;;;;;;0.75;0.75;;;17.60;57.70;;;;;;4992182;28;20490;-12
2022/04/02 01:45:52;;;;;;;1.05;0.60;;;17.60;56.90;;;;;;4997859;28;20191;-13
2022/04/02 01:48:17;;;;;;;0.47;0.47;;;17.50;56.90;;;;;;5012276;28;20053;-13
2022/04/02 01:50:43;;;;;;;0.60;0.60;;;17.60;56.90;;;;;;4999216;28;20084;-12
2022/04/02 01:53:09;;;;;;;1.95;0.68;;;17.60;56.80;;;;;;4989651;28;20050;-13
2022/04/02 01:55:35;;;;;;;0.60;0.47;;;17.50;56.90;;;;;;4990569;28;20057;-13
2022/04/02 01:58:01;;;;;;;0.60;0.40;;;17.50;57.00;;;;;;4993898;28;20054;-12
2022/04/02 02:00:26;;;;;;;0.68;0.60;;;17.50;57.10;;;;;;4999005;28;20053;-13
2022/04/02 02:02:52;;;;;;;0.65;0.60;;;17.50;57.10;;;;;;4987317;28;20061;-12
2022/04/02 02:05:17;;;;;;;0.55;0.55;;;17.40;57.00;;;;;;5003659;28;20124;-12
2022/04/02 02:07:49;;;;;;;0.88;0.60;;;17.40;57.10;;;;;;5003502;28;20117;-13
2022/04/02 02:10:15;;;;;;;0.73;0.55;;;17.50;57.00;;;;;;4992107;28;20120;-13
2022/04/02 02:12:41;;;;;;;0.65;0.65;;;17.50;56.90;;;;;;4989586;28;20054;-12
2022/04/02 02:15:07;;;;;;;1.10;0.70;;;17.50;57.00;;;;;;4994687;28;20097;-12
2022/04/02 02:17:33;;;;;;;0.40;0.40;;;17.50;56.90;;;;;;4994778;28;20043;-12
2022/04/02 02:19:59;;;;;;;0.68;0.60;;;17.50;56.90;;;;;;4994909;28;20518;-14
2022/04/02 02:22:24;;;;;;;0.73;0.70;;;17.40;57.00;;;;;;4991284;28;20078;-14
2022/04/02 02:24:50;;;;;;;0.60;0.50;;;17.40;56.90;;;;;;4980212;28;20041;-14
2022/04/02 02:27:15;;;;;;;0.70;0.60;;;17.50;56.80;;;;;;4995801;28;20370;-13
2022/04/02 02:29:41;;;;;;;0.45;0.40;;;17.40;56.80;;;;;;4995142;28;20077;-13
2022/04/02 02:32:08;;;;;;;0.50;0.43;;;17.40;56.90;;;;;;4995513;28;20050;-14
2022/04/02 02:37:18;;;;;;;0.68;0.50;;;17.30;56.90;;;;;;4993905;28;20065;-14
2022/04/02 02:39:44;;;;;;;1.70;0.63;;;17.40;57.00;;;;;;4992378;28;20465;-14
2022/04/02 02:42:10;;;;;;;0.50;0.50;;;17.30;57.20;;;;;;4995684;28;20144;-15
2022/04/02 02:44:35;;;;;;;0.60;0.60;;;17.30;57.20;;;;;;4995218;28;20526;-13
2022/04/02 02:47:01;;;;;;;0.60;0.50;;;17.30;57.70;;;;;;4995269;28;20073;-14
2022/04/02 02:49:26;;;;;;;2.45;0.60;;;17.40;57.00;;;;;;4995526;28;20094;-13
2022/04/02 02:51:52;;;;;;;0.50;0.50;;;17.30;57.00;;;;;;4993855;28;20054;-14
2022/04/02 02:54:18;;;;;;;0.57;0.57;;;17.30;57.00;;;;;;4992326;28;20423;-13
2022/04/02 02:56:43;;;;;;;0.52;0.50;;;17.30;57.10;;;;;;4989623;28;20130;-13
2022/04/02 02:59:09;;;;;;;0.68;0.32;;;17.20;57.20;;;;;;4995307;28;20047;-13
2022/04/02 03:01:34;;;;;;;0.65;0.52;;;17.30;57.20;;;;;;4988946;28;20082;-13
2022/04/02 03:04:00;;;;;;;0.47;0.47;;;17.30;57.00;;;;;;4978631;28;20519;-14
2022/04/02 03:06:26;;;;;;;0.70;0.50;;;17.30;57.10;;;;;;4994746;28;20102;-14
2022/04/02 03:08:51;;;;;;;0.80;0.43;;;17.20;57.20;;;;;;4994379;28;22102;-13
2022/04/02 03:11:17;;;;;;;0.45;0.45;;;17.20;57.40;;;;;;4995456;28;20042;-13
2022/04/02 03:13:42;;;;;;;0.40;0.40;;;17.20;57.40;;;;;;4979170;28;20058;-13
2022/04/02 03:16:08;;;;;;;0.45;0.40;;;17.20;57.20;;;;;;4992198;28;20124;-13
2022/04/02 03:18:34;;;;;;;1.13;0.60;;;17.20;57.20;;;;;;4993830;28;20042;-13
2022/04/02 03:21:00;;;;;;;0.63;0.50;;;17.20;57.30;;;;;;4979148;28;20050;-13
2022/04/02 03:23:25;;;;;;;0.50;0.50;;;17.20;57.20;;;;;;4995121;28;20054;-13
2022/04/02 03:25:51;;;;;;;0.43;0.43;;;17.20;57.30;;;;;;4994594;28;20055;-14
2022/04/02 03:28:17;;;;;;;0.30;0.30;;;17.20;57.30;;;;;;4988524;28;20069;-13
2022/04/02 03:30:44;;;;;;;0.60;0.40;;;17.20;57.30;;;;;;4994687;28;20054;-13
2022/04/02 03:33:10;;;;;;;1.08;0.55;;;17.20;57.20;;;;;;4994452;28;20101;-13
2022/04/02 03:35:36;;;;;;;0.40;0.40;;;17.20;57.20;;;;;;4995239;28;20054;-13
2022/04/02 03:38:02;;;;;;;0.40;0.35;;;17.20;57.20;;;;;;4991477;28;20074;-13
2022/04/02 03:40:27;;;;;;;0.60;0.60;;;17.20;57.20;;;;;;4995103;28;20134;-13
2022/04/02 03:42:53;;;;;;;0.30;0.30;;;17.20;57.30;;;;;;4994061;28;20046;-13
2022/04/02 03:45:20;;;;;;;0.40;0.38;;;17.20;57.20;;;;;;4975822;28;20050;-13
2022/04/02 03:47:46;;;;;;;0.50;0.40;;;17.20;57.90;;;;;;4978603;28;20042;-14
2022/04/02 03:50:11;;;;;;;0.50;0.50;;;17.10;57.20;;;;;;4998447;28;20145;-13
2022/04/02 03:52:37;;;;;;;0.63;0.63;;;17.20;57.10;;;;;;4998565;28;20054;-14
2022/04/02 03:55:05;;;;;;;0.70;0.47;;;17.20;57.10;;;;;;4996510;28;20100;-13
2022/04/02 03:57:31;;;;;;;0.50;0.50;;;17.20;57.20;;;;;;4998601;28;20053;-13
2022/04/02 03:59:57;;;;;;;0.50;0.50;;;17.10;57.30;;;;;;4995551;28;20054;-12
2022/04/02 04:02:22;;;;;;;0.43;0.43;;;17.10;57.20;;;;;;4983773;28;20219;-13
2022/04/02 04:04:48;;;;;;;0.75;0.50;;;17.10;57.30;;;;;;4989860;28;20078;-13
2022/04/02 04:07:14;;;;;;;0.30;0.30;;;17.10;57.30;;;;;;4996656;28;20042;-12
2022/04/02 04:09:40;;;;;;;0.60;0.57;;;17.10;57.30;;;;;;4996971;28;20128;-13
2022/04/02 04:12:07;;;;;;;0.30;0.30;;;17.10;57.20;;;;;;4996182;28;20050;-13
2022/04/02 04:14:33;;;;;;;0.47;0.47;;;17.10;57.30;;;;;;4989298;28;20058;-13
2022/04/02 04:16:58;;;;;;;0.40;0.40;;;17.10;57.40;;;;;;4976663;28;20050;-13
2022/04/02 04:19:24;;;;;;;0.50;0.50;;;17.10;57.40;;;;;;4978443;28;20097;-13
2022/04/02 04:21:50;;;;;;;0.60;0.55;;;17.10;57.30;;;;;;4977815;28;20047;-13
2022/04/02 04:24:15;;;;;;;0.30;0.20;;;17.10;57.40;;;;;;4993573;28;20109;-13
2022/04/02 04:26:41;;;;;;;0.38;0.38;;;17.10;57.30;;;;;;4998197;28;20049;-13
2022/04/02 04:29:07;;;;;;;0.32;0.30;;;17.10;57.20;;;;;;4997921;28;20542;-13
2022/04/02 04:31:33;;;;;;;0.45;0.45;;;17.10;57.20;;;;;;4998119;28;20404;-13
2022/04/02 04:33:58;;;;;;;0.35;0.35;;;17.10;57.20;;;;;;4977897;28;20075;-14
2022/04/02 04:36:24;;;;;;;0.30;0.30;;;17.10;57.30;;;;;;4978856;28;20042;-13
2022/04/02 04:38:50;;;;;;;2.00;0.40;;;17.10;57.30;;;;;;4978665;28;20078;-13
2022/04/02 04:41:18;;;;;;;0.45;0.40;;;17.10;57.10;;;;;;4997589;28;20046;-13
2022/04/02 04:43:48;;;;;;;0.40;0.40;;;17.00;57.20;;;;;;4978186;28;20455;-13
2022/04/02 04:46:16;;;;;;;0.30;0.30;;;17.10;57.20;;;;;;4991428;28;20096;-13
2022/04/02 04:48:42;;;;;;;0.22;0.20;;;17.10;57.30;;;;;;4995380;28;20483;-13
2022/04/02 04:51:08;;;;;;;0.35;0.30;;;17.10;57.20;;;;;;4997195;28;20514;-14
2022/04/02 04:53:34;;;;;;;0.38;0.38;;;17.10;57.20;;;;;;4997720;28;20042;-14
2022/04/02 04:56:00;;;;;;;0.35;0.35;;;17.10;57.20;;;;;;4997367;28;20045;-13
2022/04/02 04:58:27;;;;;;;0.43;0.40;;;17.00;57.20;;;;;;4996432;28;20443;-13
2022/04/02 05:00:53;;;;;;;0.40;0.40;;;17.00;57.30;;;;;;4997088;28;20042;-13
2022/04/02 05:03:20;;;;;;;1.48;0.30;;;17.00;57.30;;;;;;4988977;28;20057;-13
2022/04/02 05:05:46;;;;;;;0.43;0.40;;;17.00;57.20;;;;;;4977746;28;20047;-13
2022/04/02 05:08:12;;;;;;;0.40;0.40;;;17.10;57.90;;;;;;4989217;28;20116;-13
2022/04/02 05:10:41;;;;;;;0.50;0.50;;;17.00;57.20;;;;;;4996967;28;20046;-13
2022/04/02 05:13:12;;;;;;;0.30;0.30;;;17.00;57.30;;;;;;4996201;28;20061;-14
2022/04/02 05:15:40;;;;;;;0.38;0.32;;;17.00;57.30;;;;;;4989083;28;20053;-14
2022/04/02 05:18:05;;;;;;;0.30;0.30;;;17.00;57.20;;;;;;4996091;28;20112;-13
2022/04/02 05:20:31;;;;;;;0.40;0.40;;;17.00;57.20;;;;;;4997260;28;20137;-14
2022/04/02 05:22:56;;;;;;;0.40;0.40;;;17.00;57.20;;;;;;4996212;28;20061;-13
2022/04/02 05:25:22;;;;;;;0.43;0.43;;;17.00;57.30;;;;;;4979754;28;20050;-13
2022/04/02 05:27:48;;;;;;;0.40;0.40;;;17.00;57.30;;;;;;4993748;28;20503;-13
2022/04/02 05:30:13;;;;;;;0.30;0.30;;;17.00;57.20;;;;;;4997282;28;20046;-13
2022/04/02 05:32:39;;;;;;;0.30;0.30;;;17.00;57.30;;;;;;4996670;28;20096;-13
2022/04/02 05:35:05;;;;;;;0.30;0.30;;;17.00;57.20;;;;;;4996568;28;20046;-15
2022/04/02 05:37:31;;;;;;;0.30;0.30;;;17.00;57.90;;;;;;4995797;28;20046;-13
2022/04/02 05:39:56;;;;;;;0.60;0.30;;;17.00;57.30;;;;;;4988926;28;20081;-13
2022/04/02 05:42:22;;;;;;;0.40;0.30;;;17.00;57.30;;;;;;4995228;28;20134;-13
2022/04/02 05:44:48;;;;;;;0.30;0.30;;;17.00;57.20;;;;;;4995492;28;20141;-14
2022/04/02 05:47:14;;;;;;;0.22;0.22;;;17.00;57.30;;;;;;4996972;28;20061;-14
2022/04/02 05:49:40;;;;;;;0.30;0.30;;;17.00;57.20;;;;;;4995483;28;20100;-12
2022/04/02 05:52:05;;;;;;;0.40;0.28;;;16.90;57.30;;;;;;4991731;28;20039;-13
2022/04/02 05:54:31;;;;;;;0.30;0.30;;;16.90;57.30;;;;;;4991654;28;20050;-14
2022/04/02 05:56:57;;;;;;;0.30;0.30;;;17.00;57.30;;;;;;4994269;28;20054;-13
2022/04/02 05:59:23;;;;;;;0.73;0.43;;;16.90;57.30;;;;;;4994498;28;20042;-13
2022/04/02 06:01:49;;;;;;;0.40;0.40;;;16.90;57.40;;;;;;4996068;28;20073;-14
2022/04/02 06:04:14;;;;;;;0.73;0.50;;;16.90;57.40;;;;;;4996757;28;20066;-13
2022/04/02 06:06:40;;;;;;;0.50;0.50;;;16.80;57.50;;;;;;4993420;28;20058;-13
2022/04/02 06:09:06;;;;;;;0.50;0.50;;;16.80;57.60;;;;;;4995659;28;20042;-12
2022/04/02 06:11:31;;;;;;;0.80;0.80;;;16.90;57.50;;;;;;4996720;28;20042;-12
2022/04/02 06:13:57;;;;;;;1.20;1.20;;;16.90;57.60;;;;;;4991900;28;20629;-13
2022/04/02 06:16:23;;;;;;;1.25;1.25;;;16.90;57.60;;;;;;4992663;28;20046;-13
2022/04/02 06:18:49;;;;;;;1.10;1.10;;;16.90;57.60;;;;;;4995878;28;20049;-15
2022/04/02 06:21:15;;;;;;;1.48;1.40;;;16.90;57.70;;;;;;4996053;28;20062;-14
2022/04/02 06:23:42;;;;;;;1.50;1.50;;;16.80;57.80;;;;;;4994906;28;20057;-13
2022/04/02 06:26:08;;;;;;;1.45;1.45;;;16.80;58.40;;;;;;4995661;28;20185;-13
2022/04/02 06:28:34;;;;;;;2.00;1.90;;;16.80;57.70;;;;;;4987523;28;20518;-13
2022/04/02 06:31:00;;;;;;;1.90;1.90;;;16.80;57.80;;;;;;4979073;28;20411;-12
2022/04/02 06:33:25;;;;;;;2.13;2.10;;;16.80;57.90;;;;;;4994687;28;20042;-13
2022/04/02 06:35:51;;;;;;;2.58;2.38;;;16.80;57.90;;;;;;4994723;28;20499;-13
2022/04/02 06:38:17;;;;;;;2.30;2.20;;;16.80;57.90;;;;;;4995308;28;20105;-13
2022/04/02 06:40:42;;;;;;;1.92;1.90;;;16.80;57.90;;;;;;4995063;28;20496;-12
2022/04/02 06:43:08;;;;;;;2.05;1.95;;;16.80;57.90;;;;;;4994424;28;20042;-13
2022/04/02 06:45:34;;;;;;;2.22;1.92;;;16.80;58.10;;;;;;4996045;28;20070;-13
2022/04/02 06:47:59;;;;;;;2.20;2.10;;;16.80;57.80;;;;;;4991945;28;20038;-14
2022/04/02 06:50:25;;;;;;;1.80;1.70;;;16.80;57.80;;;;;;4642550;28;9999819;-12
2022/04/02 06:52:50;;;;;;;1.42;1.38;;;16.80;57.30;;;;;;4990649;28;20042;-15
2022/04/02 06:55:16;;;;;;;1.40;1.30;;;16.90;57.20;;;;;;4995347;28;20070;-13
2022/04/02 06:57:49;;;;;;;1.20;1.20;;;16.80;57.30;;;;;;4991237;28;20060;-12
2022/04/02 07:00:15;;;;;;;1.65;1.65;;;16.80;57.30;;;;;;4995589;28;20080;-12
2022/04/02 07:02:41;;;;;;;1.73;1.63;;;16.80;57.40;;;;;;4990426;28;20042;-13
2022/04/02 07:05:07;;;;;;;1.60;1.60;;;16.80;57.90;;;;;;5002765;28;20056;-14
2022/04/02 07:07:33;;;;;;;1.63;1.45;;;16.80;57.50;;;;;;4993509;28;20133;-13
2022/04/02 07:09:58;;;;;;;4.13;1.60;;;16.80;57.30;;;;;;4992013;28;20516;-13
2022/04/02 07:12:24;;;;;;;2.60;1.85;;;16.80;57.50;;;;;;4988128;28;20046;-15
2022/04/02 07:14:50;;;;;;;3.00;1.88;;;16.90;57.70;;;;;;4992894;28;20077;-12
2022/04/02 07:17:15;;;;;;;1.90;1.80;;;16.90;57.60;;;;;;4993400;28;20108;-13
2022/04/02 07:19:41;;;;;;;1.58;1.48;;;16.90;57.70;;;;;;4980577;28;20043;-13
2022/04/02 07:22:11;;;;;;;1.60;1.40;;;16.90;57.80;;;;;;4996251;28;20542;-13
2022/04/02 07:24:39;;;;;;;1.55;1.45;;;16.80;57.80;;;;;;4998132;28;20051;-12
2022/04/02 07:27:05;;;;;;;1.70;1.58;;;16.80;57.80;;;;;;4997574;28;20038;-13
2022/04/02 07:29:34;;;;;;;1.90;1.63;;;16.90;57.90;;;;;;4998043;28;20057;-13
2022/04/02 07:32:00;;;;;;;1.60;1.50;;;16.90;57.80;;;;;;4998233;28;20050;-13
2022/04/02 07:34:25;;;;;;;2.05;1.30;;;16.90;57.70;;;;;;4996887;28;20057;-13
2022/04/02 07:37:19;;;;;;;2.17;1.70;;;16.90;57.70;;;;;;4998346;28;20046;-14
2022/04/02 07:40:07;;;;;;;1.20;1.20;;;17.00;57.60;;;;;;4985570;28;20976;-13
2022/04/02 07:42:58;;;;;;;1.65;1.55;;;17.10;57.50;;;;;;4989479;28;20202;-12
2022/04/02 07:45:45;;;;;;;1.60;1.50;;;17.20;57.30;;;;;;4994392;28;20081;-13
2022/04/02 07:48:11;;;;;;;1.85;1.23;;;17.30;56.90;;;;;;4992130;28;20058;-14
2022/04/02 07:50:41;;;;;;;1.40;1.30;;;17.40;57.00;;;;;;4997456;28;20484;-14
2022/04/02 07:53:07;;;;;;;1.20;1.20;;;17.40;57.20;;;;;;4995589;28;20046;-14
2022/04/02 07:55:32;;;;;;;1.45;1.35;;;17.40;56.90;;;;;;4994042;28;20046;-13
2022/04/02 07:58:02;;;;;;;1.40;1.17;;;17.70;56.40;;;;;;4988584;28;20039;-14
2022/04/02 08:00:28;;;;;;;1.25;1.15;;;18.20;55.10;;;;;;4996941;28;20054;-15
2022/04/02 08:02:53;;;;;;;1.60;1.00;;;18.40;54.60;;;;;;4995389;28;20056;-13
2022/04/02 08:05:20;;;;;;;3.50;1.35;;;18.60;54.00;;;;;;4994302;28;20452;-13
2022/04/02 08:07:49;;;;;;;2.35;1.30;;;18.80;53.80;;;;;;4991683;28;20524;-14
2022/04/02 08:10:19;;;;;;;1.38;1.27;;;18.80;53.80;;;;;;4994232;28;20141;-13
2022/04/02 08:12:45;;;;;;;1.20;1.10;;;18.80;53.80;;;;;;4991781;28;20057;-14
2022/04/02 08:15:16;;;;;;;1.58;1.08;;;18.80;53.70;;;;;;4993645;28;20047;-14
2022/04/02 08:17:43;;;;;;;2.33;1.00;;;18.50;54.10;;;;;;4984411;28;20122;-13
2022/04/02 08:20:10;;;;;;;0.80;0.80;;;18.20;55.50;;;;;;4979765;28;20780;-14
2022/04/02 08:22:36;;;;;;;1.00;0.90;;;17.90;55.50;;;;;;4996515;28;20100;-14
2022/04/02 08:25:01;;;;;;;1.15;1.13;;;17.60;56.40;;;;;;4996527;28;20058;-13
2022/04/02 08:27:30;;;;;;;0.98;0.93;;;17.40;56.80;;;;;;4998458;28;20442;-14
2022/04/02 08:30:23;;;;;;;1.30;0.80;;;17.40;57.10;;;;;;4990502;28;20050;-13
2022/04/02 08:33:19;;;;;;;0.70;0.70;;;17.30;57.10;;;;;;4989675;28;20042;-13
2022/04/02 08:36:03;;;;;;;1.75;0.63;;;17.30;57.30;;;;;;4995721;28;20046;-13
2022/04/02 08:38:54;;;;;;;1.10;0.85;;;17.30;57.40;;;;;;4991303;28;20043;-14
2022/04/02 08:41:48;;;;;;;0.68;0.68;;;17.30;57.30;;;;;;4991669;28;20050;-13
2022/04/02 08:44:44;;;;;;;0.70;0.70;;;17.30;57.20;;;;;;4978040;28;20046;-13
2022/04/02 08:47:25;;;;;;;0.60;0.60;;;17.40;57.00;;;;;;4996618;28;20046;-14
2022/04/02 08:50:05;;;;;;;2.67;0.60;;;17.40;57.00;;;;;;4989806;28;20047;-14
2022/04/02 08:52:49;;;;;;;0.77;0.60;;;17.40;57.60;;;;;;4996105;28;20523;-14
2022/04/02 08:55:24;;;;;;;0.43;0.43;;;17.50;57.00;;;;;;4996365;28;20049;-13
2022/04/02 08:57:53;;;;;;;0.95;0.70;;;17.50;56.80;;;;;;4979588;28;20286;-14
2022/04/02 09:00:26;;;;;;;0.80;0.63;;;17.40;56.90;;;;;;4997264;28;20372;-14
2022/04/02 09:03:23;;;;;;;1.48;0.40;;;17.40;57.10;;;;;;4994213;28;20135;-14
2022/04/02 09:06:13;;;;;;;0.60;0.60;;;17.40;57.20;;;;;;4994710;28;20186;-13
2022/04/02 09:08:40;;;;;;;1.15;0.60;;;17.40;57.20;;;;;;4977475;28;20051;-13
2022/04/02 09:11:33;;;;;;;0.60;0.60;;;17.40;57.20;;;;;;4981633;28;20868;-14
2022/04/02 09:14:17;;;;;;;0.40;0.35;;;17.40;57.40;;;;;;4995399;28;20042;-15
2022/04/02 09:17:19;;;;;;;0.60;0.60;;;17.40;57.20;;;;;;4996632;28;20070;-13
2022/04/02 09:19:54;;;;;;;3.17;0.68;;;17.40;57.40;;;;;;4972971;28;20439;-13
2022/04/02 09:22:47;;;;;;;0.50;0.50;;;17.50;57.40;;;;;;4977021;28;20115;-14
2022/04/02 09:25:34;;;;;;;0.50;0.50;;;17.50;57.30;;;;;;4976263;28;20046;-14
2022/04/02 09:28:21;;;;;;;0.60;0.60;;;17.40;57.00;;;;;;4978099;28;20049;-16
2022/04/02 09:31:05;;;;;;;1.63;0.50;;;17.50;57.40;;;;;;4997306;28;20062;-14
2022/04/02 09:33:52;;;;;;;0.50;0.50;;;17.50;57.10;;;;;;4995598;28;20509;-13
2022/04/02 09:36:36;;;;;;;0.40;0.40;;;17.50;57.30;;;;;;4996495;28;20046;-14
2022/04/02 09:39:06;;;;;;;0.68;0.40;;;17.40;57.40;;;;;;4996564;28;20048;-13
2022/04/02 09:42:02;;;;;;;0.30;0.30;;;17.50;57.30;;;;;;4996358;28;20046;-12
2022/04/02 09:44:42;;;;;;;0.40;0.40;;;17.40;57.00;;;;;;4979406;28;20046;-13
2022/04/02 09:47:23;;;;;;;0.30;0.30;;;17.50;57.20;;;;;;4997102;28;20046;-13
2022/04/02 09:50:08;;;;;;;0.50;0.40;;;17.50;57.10;;;;;;4994877;28;20035;-13
2022/04/02 09:52:36;;;;;;;0.30;0.28;;;17.40;56.90;;;;;;4985474;28;20066;-13
2022/04/02 09:55:12;;;;;;;0.40;0.40;;;17.40;56.90;;;;;;4984183;28;20066;-14
2022/04/02 09:58:02;;;;;;;0.43;0.30;;;17.50;56.80;;;;;;4989532;28;20133;-13
2022/04/02 10:00:38;;;;;;;0.50;0.30;;;17.50;56.90;;;;;;4985461;28;20189;-13
2022/04/02 10:03:25;;;;;;;0.40;0.40;;;17.50;56.60;;;;;;4986632;28;20046;-13
2022/04/02 10:06:35;;;;;;;0.50;0.30;;;17.50;56.60;;;;;;4982542;28;20576;-13
2022/04/02 10:09:07;;;;;;;0.47;0.47;;;17.60;56.20;;;;;;4982506;28;20056;-12
2022/04/02 10:11:34;;;;;;;0.20;0.20;;;17.60;56.00;;;;;;4988742;28;20056;-13
2022/04/02 10:14:02;;;;;;;0.55;0.30;;;17.60;56.20;;;;;;4988314;28;20121;-13
2022/04/02 10:16:28;;;;;;;1.00;0.22;;;17.70;56.10;;;;;;4983833;28;20114;-13
2022/04/02 10:18:55;;;;;;;0.30;0.22;;;17.70;56.00;;;;;;4989345;28;20046;-13
2022/04/02 10:21:21;;;;;;;0.30;0.22;;;17.70;55.80;;;;;;4985610;28;20074;-13
2022/04/02 10:24:09;;;;;;;0.35;0.35;;;17.80;55.70;;;;;;4986281;28;20077;-13
2022/04/02 10:26:39;;;;;;;1.33;0.50;;;17.80;55.70;;;;;;4985261;28;20077;-13
2022/04/02 10:29:12;;;;;;;0.52;0.40;;;17.80;55.80;;;;;;4987410;28;20065;-13
2022/04/02 10:31:42;;;;;;;0.43;0.32;;;17.80;56.10;;;;;;4989288;28;20054;-13
2022/04/02 10:34:09;;;;;;;0.85;0.55;;;17.80;56.30;;;;;;4984227;28;20105;-12
2022/04/02 10:36:49;;;;;;;0.80;0.60;;;17.90;56.50;;;;;;4986539;28;20050;-13
2022/04/02 10:39:16;;;;;;;0.70;0.70;;;17.90;56.60;;;;;;4985900;28;20041;-12
2022/04/02 10:41:43;;;;;;;1.30;0.60;;;17.90;56.70;;;;;;4983910;28;20156;-12
2022/04/02 10:44:48;;;;;;;0.93;0.80;;;17.90;56.90;;;;;;4982089;28;20058;-12
2022/04/02 10:47:14;;;;;;;1.17;0.90;;;17.90;57.10;;;;;;4993068;28;20113;-12
2022/04/02 10:49:41;;;;;;;2.83;0.98;;;17.90;58.60;;;;;;4992834;28;20048;-13
2022/04/02 10:52:06;;;;;;;1.65;0.73;;;17.90;58.80;;;;;;4993291;28;20104;-14
2022/04/02 10:54:32;;;;;;;0.85;0.80;;;17.90;58.90;;;;;;4995878;28;20046;-13
2022/04/02 10:56:57;;;;;;;1.00;0.80;;;17.90;58.80;;;;;;4994261;28;20129;-13
2022/04/02 10:59:30;;;;;;;0.68;0.63;;;17.90;58.40;;;;;;4980908;28;20043;-13
2022/04/02 11:01:58;;;;;;;1.05;0.75;;;17.90;58.20;;;;;;4994354;28;20043;-14
2022/04/02 11:04:57;;;;;;;1.02;0.93;;;17.90;58.30;;;;;;4642443;28;10000064;-13
2022/04/02 11:07:30;;;;;;;1.73;0.70;;;17.90;58.20;;;;;;4987451;28;20495;-14
2022/04/02 11:09:57;;;;;;;0.60;0.60;;;18.00;58.10;;;;;;4980024;28;20267;-14
2022/04/02 11:12:30;;;;;;;2.03;0.80;;;18.00;58.20;;;;;;4990958;28;20058;-14
2022/04/02 11:15:05;;;;;;;1.20;1.10;;;18.00;58.10;;;;;;4996978;28;20073;-14
2022/04/02 11:17:36;;;;;;;0.60;0.57;;;18.00;58.00;;;;;;5003332;28;20053;-13
2022/04/02 11:20:02;;;;;;;0.50;0.50;;;18.00;58.00;;;;;;5000903;28;20061;-15
2022/04/02 11:22:49;;;;;;;0.85;0.50;;;18.10;58.20;;;;;;4999831;28;20062;-14
2022/04/02 11:25:35;;;;;;;0.73;0.63;;;18.10;58.10;;;;;;4994495;28;20053;-15
2022/04/02 11:28:14;;;;;;;2.97;0.68;;;18.10;58.00;;;;;;4985422;28;20054;-14
2022/04/02 11:30:40;;;;;;;0.80;0.50;;;18.10;57.90;;;;;;4990884;28;20127;-14
2022/04/02 11:33:10;;;;;;;0.82;0.47;;;18.20;57.90;;;;;;4992137;28;20058;-13
2022/04/02 11:35:37;;;;;;;0.82;0.60;;;18.20;57.80;;;;;;4989497;28;20503;-14
2022/04/02 11:38:10;;;;;;;0.60;0.55;;;18.20;57.70;;;;;;4990642;28;20427;-14
2022/04/02 11:40:40;;;;;;;0.52;0.50;;;18.20;57.60;;;;;;4987388;28;20076;-13
2022/04/02 11:43:06;;;;;;;1.17;0.50;;;18.20;57.60;;;;;;4985692;28;20047;-13
2022/04/02 11:45:32;;;;;;;0.50;0.50;;;18.20;57.60;;;;;;4988986;28;20046;-14
2022/04/02 11:48:01;;;;;;;0.50;0.40;;;18.20;57.60;;;;;;4975245;28;20074;-14
2022/04/02 11:50:27;;;;;;;0.70;0.50;;;18.20;57.60;;;;;;4984335;28;20114;-14
2022/04/02 11:52:58;;;;;;;2.08;0.60;;;18.20;57.40;;;;;;4990656;28;20086;-14
2022/04/02 11:55:24;;;;;;;0.93;0.60;;;18.30;57.40;;;;;;4994074;28;20050;-14
2022/04/02 11:57:57;;;;;;;2.17;0.77;;;18.30;57.60;;;;;;5000089;28;20050;-14
2022/04/02 12:00:26;;;;;;;1.27;0.60;;;18.30;57.40;;;;;;4990410;28;20046;-14
2022/04/02 12:02:52;;;;;;;1.15;0.45;;;18.30;57.40;;;;;;4990362;28;20046;-14
2022/04/02 12:05:20;;;;;;;0.40;0.40;;;18.30;57.50;;;;;;4990003;28;20038;-14
2022/04/02 12:07:47;;;;;;;0.68;0.30;;;18.40;57.40;;;;;;4988180;28;20046;-13
2022/04/02 12:10:16;;;;;;;2.03;0.40;;;18.30;57.50;;;;;;4999830;28;20152;-14
2022/04/02 12:12:46;;;;;;;1.98;0.32;;;18.30;57.60;;;;;;4995729;28;20053;-13
2022/04/02 12:15:12;;;;;;;0.40;0.40;;;18.30;57.80;;;;;;4994368;28;20507;-14
2022/04/02 12:17:38;;;;;;;1.65;0.45;;;18.20;57.80;;;;;;4994719;28;20104;-13
2022/04/02 12:20:07;;;;;;;0.73;0.40;;;18.20;57.90;;;;;;4990117;28;20049;-14
2022/04/02 12:22:35;;;;;;;0.38;0.38;;;18.20;57.80;;;;;;5005411;28;20069;-13
2022/04/02 12:25:02;;;;;;;0.55;0.40;;;18.20;57.90;;;;;;4996879;28;20631;-13
2022/04/02 12:27:30;;;;;;;0.45;0.40;;;18.20;57.80;;;;;;4993090;28;20177;-13
2022/04/02 12:29:56;;;;;;;0.73;0.50;;;18.20;57.90;;;;;;4993277;28;20065;-13
2022/04/02 12:32:36;;;;;;;1.38;0.40;;;18.20;57.80;;;;;;4993631;28;20068;-13
2022/04/02 12:35:04;;;;;;;0.63;0.22;;;18.20;57.90;;;;;;4993762;28;20038;-14
2022/04/02 12:37:42;;;;;;;2.90;0.45;;;18.20;57.80;;;;;;5004490;28;20057;-13
2022/04/02 12:40:28;;;;;;;0.80;0.40;;;18.20;58.00;;;;;;4991739;28;20053;-13
2022/04/02 12:43:07;;;;;;;0.20;0.20;;;18.20;58.40;;;;;;4988514;28;20038;-13
2022/04/02 12:45:34;;;;;;;0.55;0.40;;;18.20;57.80;;;;;;4993671;28;20046;-13
2022/04/02 12:48:05;;;;;;;0.15;0.15;;;18.30;57.70;;;;;;4994725;28;20047;-13
2022/04/02 12:50:35;;;;;;;0.98;0.40;;;18.30;57.60;;;;;;4995035;28;20233;-14
2022/04/02 12:53:01;;;;;;;0.40;0.40;;;18.30;57.50;;;;;;4992837;28;20240;-14
2022/04/02 12:55:28;;;;;;;1.95;0.40;;;18.40;57.60;;;;;;4986668;28;20062;-13
2022/04/02 12:58:01;;;;;;;2.45;0.55;;;18.30;57.50;;;;;;4980296;28;20050;-13
2022/04/02 13:00:32;;;;;;;0.55;0.30;;;18.30;57.50;;;;;;4991302;28;20054;-14
2022/04/02 13:02:59;;;;;;;0.52;0.30;;;18.30;57.60;;;;;;4985236;28;20054;-14